Tyndall Air Force Base
KPAM : now visible

Airfield :











YOU CAN JOIN US ON...

 
LOGIN :

Register | Disclaimer

   EN    FR    IT 

 









Legend :    VFR   Marginal VFR   IFR   Intensive IFR   Very Intensive IFR
Visi :
Ceiling :
>= 8 km
>= 3000ft
5 to 8 km
1000 to 3000 ft
1500m to 5 km
500 to 1000 ft
800 to 1500m
200 to 500 ft
< 800m
< 200 ft
Symbols :   Thunderstorms  Fog  Heavy snow  Heavy precipitations  Wind > 20 kt







- Airport Elevation : 17 ft


KPAM - Tyndall Air Force Base

CURRENT METAR :
  • 181856Z AUTO 25009KT 10SM FEW140 32/26 A3006 RMK AO2 SLP182 T03180261 $

EXPIRED METARs :
  • 181756Z AUTO 21007KT 10SM FEW021 FEW130 SCT160 BKN180 31/26 A3009 RMK AO2 SLP192 T03080258 10315 20277 55000 $

TAF TAF KPAM
Valid from the 18 at 18:00 until the 20 at 00:00 UTC


181800Z 1818/1924 23009KT 9999 SCT025 QNH3000INS
BECMG 1905/1906 24006KT 9999 SCT010 QNH2998INS
BECMG 1914/1915 25006KT 9999 SCT050 QNH3000INS TX31/1818Z TN26/1911Z LAST NO AMDS AFT 1822 NEXT 1910
KZJX FIR / North America



MET'MAP, your aeronautical weather chart ! - Copyright ORBIFLY December 2007 - Disclaimer

ORBIFLY MET'MAP TEAM :

Programming & Development : Alexandra Zaïnal
Concept & Development : Baudouin d'Aumeries
Co-Development & Prog : Marc-Olivier Méhu
Technical & hardware support : Manuel Goepfert

Contact : metmap@orbifly.com




SOURCES & CREDITS :

   NOAA       Earth
Advisory